X  Bezárás Metar Aviation Weather Data     LHBP Budapest Liszt Ferenc International Airport
Hőmérséklet
25°C Hőmérséklet
12°C Harmatpont
44% Páratartalom



Szél
10 KM/H
6 MPH
3 M/S
5 KTS



310°
ÉNY
Current Conditions

Clear Clear
Pressure 1018.92 (hPa) - 30.09 (inHg)
Visibility 6.2 (mile) - 10 (km)
Repülőtér
Airport-code LHBP

Location: Budapest Liszt Ferenc International Airport
Távolság: 14 (km)

Metar:
LHBP 211130Z 31005KT 250V360 CAVOK 25/12 Q1019 NOSIG

Idő: 21-07-2021 13:30 CEST